Terminal Aerodrome Forecast
Issued by NWS

Home | Current Version | Previous Version | Text Only | Print | Product List | Glossary On
Versions: 1 2 3 4 5 6 7 8 9 10 11 12 13 14 15 16 17 18 19 20 21 22 23 24 25 26 27 28 29 30 31 32 33 34 35 36
511
FTUS45 KBOU 061140
TAFAPA
TAF
KAPA 061140Z 0612/0712 19008KT P6SM FEW120 SCT220
     FM061600 16011KT P6SM FEW120 SCT220
     FM062000 12013KT P6SM VCSH SCT110 BKN200
      TEMPO 0621/0701 VRB25G40KT BKN090
     FM070200 16014G22KT P6SM FEW120 SCT220
     FM071000 23012KT P6SM FEW140 SCT220=

USA.gov is the U.S. government's official web portal to all federal, state and local government web resources and services.